createdAt,value
2023-10-20T00:00:15.816Z,8.20
2023-10-20T00:02:45.359Z,8.87
2023-10-20T00:05:14.962Z,8.13
2023-10-20T00:07:43.021Z,8.10
2023-10-20T00:10:12.613Z,8.43
2023-10-20T00:12:41.355Z,7.60
2023-10-20T00:15:14.849Z,6.47
2023-10-20T00:17:43.336Z,7.17
2023-10-20T00:20:14.197Z,5.93
2023-10-20T00:22:42.848Z,6.00
2023-10-20T00:25:12.829Z,5.57
2023-10-20T00:27:40.815Z,6.10
2023-10-20T00:30:10.441Z,6.47
2023-10-20T00:32:41.098Z,7.00
2023-10-20T00:35:10.562Z,6.17
2023-10-20T00:37:40.135Z,5.70
2023-10-20T00:40:10.693Z,6.47
2023-10-20T00:42:39.030Z,6.73
2023-10-20T00:45:08.079Z,6.43
2023-10-20T00:47:39.699Z,7.07
2023-10-20T00:50:10.350Z,7.20
2023-10-20T00:52:41.071Z,6.40
2023-10-20T00:55:10.798Z,7.93
2023-10-20T00:57:39.649Z,7.40
2023-10-20T01:00:10.284Z,7.70
2023-10-20T01:02:38.948Z,8.10
2023-10-20T01:05:07.813Z,7.60
2023-10-20T01:07:36.500Z,7.97
2023-10-20T01:10:06.921Z,8.13
2023-10-20T01:12:35.279Z,7.93
2023-10-20T01:15:06.017Z,9.30
2023-10-20T01:17:34.626Z,9.33
2023-10-20T01:20:04.706Z,8.73
2023-10-20T01:22:32.742Z,10.63
2023-10-20T01:25:02.285Z,11.00
2023-10-20T01:27:30.281Z,11.90
2023-10-20T01:29:58.215Z,9.93
2023-10-20T01:32:26.185Z,10.67
2023-10-20T01:34:54.146Z,10.37
2023-10-20T01:37:22.037Z,11.67
2023-10-20T01:39:50.098Z,10.43
2023-10-20T01:42:19.326Z,10.40
2023-10-20T01:44:47.318Z,10.40
2023-10-20T01:47:15.251Z,9.40
2023-10-20T01:49:43.270Z,9.90
2023-10-20T01:52:11.354Z,8.40
2023-10-20T01:54:39.325Z,8.17
2023-10-20T01:57:07.282Z,8.30
2023-10-20T01:59:36.686Z,8.67
2023-10-20T02:02:05.251Z,8.53
2023-10-20T02:04:33.778Z,8.07
2023-10-20T02:07:02.351Z,9.43
2023-10-20T02:09:30.420Z,8.63
2023-10-20T02:11:59.513Z,8.23
2023-10-20T02:14:27.888Z,10.10
2023-10-20T02:16:58.430Z,8.07
2023-10-20T02:19:27.643Z,8.27
2023-10-20T02:21:56.180Z,8.20
2023-10-20T02:24:24.151Z,7.60
2023-10-20T02:26:52.314Z,7.90
2023-10-20T02:29:20.217Z,7.53
2023-10-20T02:31:48.155Z,7.70
2023-10-20T02:34:17.492Z,7.60
2023-10-20T02:36:45.556Z,8.00
2023-10-20T02:39:15.200Z,7.10
2023-10-20T02:41:44.239Z,7.63
2023-10-20T02:44:14.530Z,8.43
2023-10-20T02:46:42.525Z,8.50
2023-10-20T02:49:10.450Z,7.33
2023-10-20T02:51:40.523Z,6.77
2023-10-20T02:54:10.936Z,7.80
2023-10-20T02:56:38.990Z,8.17
2023-10-20T02:59:06.963Z,7.53
2023-10-20T03:01:35.002Z,8.23
2023-10-20T03:04:03.257Z,8.40
2023-10-20T03:06:31.317Z,7.43
2023-10-20T03:09:01.276Z,8.07
2023-10-20T03:11:29.233Z,8.80
2023-10-20T03:13:58.045Z,8.33
2023-10-20T03:16:26.031Z,6.50
2023-10-20T03:18:54.840Z,6.17
2023-10-20T03:21:22.983Z,5.97
2023-10-20T03:23:51.272Z,4.07
2023-10-20T03:26:20.652Z,5.13
2023-10-20T03:28:48.934Z,3.97
2023-10-20T03:31:16.960Z,3.97
2023-10-20T03:33:44.915Z,2.70
2023-10-20T03:36:13.360Z,2.97
2023-10-20T03:38:43.652Z,2.20
2023-10-20T03:41:12.651Z,2.00
2023-10-20T03:43:42.030Z,2.40
2023-10-20T03:46:14.863Z,2.30
2023-10-20T03:48:42.976Z,3.23
2023-10-20T03:51:12.349Z,2.80
2023-10-20T03:53:47.907Z,3.60
2023-10-20T03:56:20.330Z,3.00
2023-10-20T03:58:50.011Z,3.47
2023-10-20T04:01:17.998Z,3.57
2023-10-20T04:03:50.744Z,4.80
2023-10-20T04:06:20.123Z,4.10
2023-10-20T04:08:48.100Z,4.53
2023-10-20T04:11:16.018Z,4.63
2023-10-20T04:13:43.921Z,4.60
2023-10-20T04:16:14.764Z,5.10
2023-10-20T04:18:44.863Z,5.07
2023-10-20T04:21:13.460Z,5.10
2023-10-20T04:23:42.278Z,5.37
2023-10-20T04:26:19.988Z,4.67
2023-10-20T04:28:49.206Z,5.50
2023-10-20T04:31:38.929Z,5.43
2023-10-20T04:34:24.810Z,5.70
2023-10-20T04:37:10.314Z,5.90
2023-10-20T04:39:56.050Z,7.13
2023-10-20T04:42:41.369Z,5.70
2023-10-20T04:45:43.380Z,6.10
2023-10-20T04:48:22.028Z,6.60
2023-10-20T04:51:19.872Z,5.37
2023-10-20T04:53:53.681Z,5.23
2023-10-20T04:56:40.946Z,6.67
2023-10-20T04:59:12.007Z,6.00
2023-10-20T05:01:42.635Z,6.30
2023-10-20T05:04:17.165Z,5.07
2023-10-20T05:06:45.910Z,5.60
2023-10-20T05:09:18.843Z,4.87
2023-10-20T05:11:47.857Z,5.27
2023-10-20T05:14:15.795Z,5.30
2023-10-20T05:16:43.737Z,6.23
2023-10-20T05:19:13.286Z,5.27
2023-10-20T05:21:41.328Z,5.33
2023-10-20T05:24:10.584Z,5.40
2023-10-20T05:26:38.792Z,5.53
2023-10-20T05:29:08.684Z,6.00
2023-10-20T05:31:36.824Z,5.50
2023-10-20T05:34:04.924Z,6.13
2023-10-20T05:36:34.652Z,6.70
2023-10-20T05:39:02.604Z,6.37
2023-10-20T05:41:31.575Z,6.60
2023-10-20T05:43:59.651Z,5.90
2023-10-20T05:46:27.606Z,5.97
2023-10-20T05:48:55.766Z,6.70
2023-10-20T05:51:23.906Z,6.90
2023-10-20T05:53:54.449Z,6.30
2023-10-20T05:56:22.770Z,6.20
2023-10-20T05:58:52.025Z,4.80
2023-10-20T06:01:20.409Z,6.00
2023-10-20T06:03:48.484Z,5.70
2023-10-20T06:06:16.614Z,5.40
2023-10-20T06:08:45.031Z,5.93
2023-10-20T06:11:14.587Z,5.30
2023-10-20T06:13:42.637Z,5.90
2023-10-20T06:16:12.347Z,5.50
2023-10-20T06:18:42.442Z,5.90
2023-10-20T06:21:14.266Z,5.47
2023-10-20T06:23:42.488Z,5.00
2023-10-20T06:26:10.761Z,5.63
2023-10-20T06:28:40.373Z,6.43
2023-10-20T06:31:28.468Z,4.80
2023-10-20T06:34:01.543Z,5.60
2023-10-20T06:36:30.208Z,5.90
2023-10-20T06:38:59.100Z,6.90
2023-10-20T06:41:28.032Z,6.77
2023-10-20T06:43:57.925Z,7.03
2023-10-20T06:46:26.155Z,7.60
2023-10-20T06:48:54.161Z,7.33
2023-10-20T06:51:22.193Z,7.90
2023-10-20T06:53:51.123Z,7.33
2023-10-20T06:56:24.791Z,9.10
2023-10-20T06:58:55.243Z,9.93
2023-10-20T07:01:24.756Z,11.90
2023-10-20T07:03:52.846Z,11.90
2023-10-20T07:06:21.961Z,12.23
2023-10-20T07:08:51.860Z,11.80
2023-10-20T07:11:19.998Z,12.23
2023-10-20T07:13:47.951Z,11.80
2023-10-20T07:16:16.000Z,13.90
2023-10-20T07:18:45.412Z,13.60
2023-10-20T07:21:13.751Z,15.47
2023-10-20T07:23:42.998Z,14.20
2023-10-20T07:26:11.909Z,15.83
2023-10-20T07:28:40.178Z,13.50
2023-10-20T07:31:13.426Z,14.40
2023-10-20T07:33:41.683Z,14.97
2023-10-20T07:36:11.851Z,13.90
2023-10-20T07:38:40.674Z,14.63
2023-10-20T07:41:11.004Z,14.60
2023-10-20T07:43:39.324Z,14.77
2023-10-20T07:46:07.400Z,14.80
2023-10-20T07:48:36.651Z,14.47
2023-10-20T07:51:05.200Z,14.97
2023-10-20T07:53:34.903Z,15.33
2023-10-20T07:56:03.131Z,14.10
2023-10-20T07:58:33.353Z,13.30
2023-10-20T08:01:01.890Z,12.50
2023-10-20T08:03:30.519Z,11.90
2023-10-20T08:06:01.273Z,10.87
2023-10-20T08:08:29.584Z,12.40
2023-10-20T08:11:00.660Z,12.80
2023-10-20T08:13:28.558Z,13.57
2023-10-20T08:15:56.669Z,13.60
2023-10-20T08:18:24.729Z,13.70
2023-10-20T08:20:53.285Z,12.50
2023-10-20T08:23:21.566Z,11.67
2023-10-20T08:25:50.673Z,9.90
2023-10-20T08:28:20.017Z,9.10
2023-10-20T08:30:48.004Z,7.93
2023-10-20T08:33:16.225Z,7.20
2023-10-20T08:35:44.803Z,5.10
2023-10-20T08:38:12.851Z,6.07
2023-10-20T08:43:11.716Z,4.10
2023-10-20T08:45:41.646Z,3.93
2023-10-20T08:48:10.099Z,3.83
2023-10-20T08:50:40.035Z,5.37
2023-10-20T08:53:10.210Z,3.80
2023-10-20T08:55:38.655Z,5.50
2023-10-20T08:58:09.117Z,5.00
2023-10-20T09:00:40.570Z,4.50
2023-10-20T09:03:17.362Z,3.87
2023-10-20T09:05:45.730Z,4.40
2023-10-20T09:08:14.334Z,4.20
2023-10-20T09:10:44.426Z,4.30
2023-10-20T09:13:12.865Z,5.03
2023-10-20T09:15:41.323Z,4.00
2023-10-20T09:18:09.918Z,4.23
2023-10-20T09:20:40.226Z,3.90
2023-10-20T09:23:13.568Z,3.67
2023-10-20T09:25:42.216Z,4.13
2023-10-20T09:28:10.154Z,3.40
2023-10-20T09:30:40.254Z,3.80
2023-10-20T09:33:09.168Z,3.40
2023-10-20T09:35:40.383Z,3.77
2023-10-20T09:38:12.590Z,3.27
2023-10-20T09:40:42.180Z,3.00
2023-10-20T09:43:26.670Z,3.10
2023-10-20T09:46:03.577Z,2.90
2023-10-20T09:48:32.151Z,2.23
2023-10-20T09:51:00.177Z,2.27
2023-10-20T09:53:29.927Z,2.10
2023-10-20T09:55:58.803Z,2.23
2023-10-20T09:58:27.915Z,2.10
2023-10-20T10:00:57.393Z,2.60
2023-10-20T10:03:38.858Z,1.60
2023-10-20T10:06:11.225Z,1.43
2023-10-20T10:08:43.630Z,2.03
2023-10-20T10:11:23.246Z,1.20
2023-10-20T10:13:56.191Z,1.60
2023-10-20T10:16:24.414Z,1.50
2023-10-20T10:18:55.758Z,1.17
2023-10-20T10:21:27.717Z,0.90
2023-10-20T10:24:16.644Z,1.00
2023-10-20T10:27:04.413Z,1.00
2023-10-20T10:29:49.656Z,0.90
2023-10-20T10:32:20.552Z,0.90
2023-10-20T10:34:50.621Z,0.83
2023-10-20T10:37:30.534Z,1.07
2023-10-20T10:40:23.555Z,1.10
2023-10-20T10:42:52.848Z,1.00
2023-10-20T10:45:24.080Z,0.90
2023-10-20T10:47:53.257Z,1.00
2023-10-20T10:50:22.463Z,0.87
2023-10-20T10:52:52.369Z,1.10
2023-10-20T10:55:22.835Z,1.20
2023-10-20T10:57:52.101Z,0.80
2023-10-20T11:00:22.832Z,0.70
2023-10-20T11:02:51.718Z,0.80
2023-10-20T11:05:20.427Z,0.70
2023-10-20T11:08:00.178Z,0.60
2023-10-20T11:10:29.965Z,0.97
2023-10-20T11:12:58.307Z,0.73
2023-10-20T11:15:31.468Z,0.90
2023-10-20T11:18:01.622Z,0.77
2023-10-20T11:20:31.161Z,1.00
2023-10-20T11:23:01.922Z,0.80
2023-10-20T11:25:32.290Z,0.80
2023-10-20T11:28:00.327Z,0.80
2023-10-20T11:30:29.886Z,0.67
2023-10-20T11:32:58.371Z,1.00
2023-10-20T11:35:27.785Z,1.40
2023-10-20T11:37:56.537Z,1.90
2023-10-20T11:40:25.366Z,1.70
2023-10-20T11:42:54.914Z,2.10
2023-10-20T11:45:23.305Z,0.80
2023-10-20T11:47:52.235Z,1.33
2023-10-20T11:50:20.857Z,0.80
2023-10-20T11:52:51.086Z,0.70
2023-10-20T11:55:19.370Z,0.87
2023-10-20T11:57:47.598Z,0.80
2023-10-20T12:00:18.296Z,0.90
2023-10-20T12:02:46.776Z,0.90
2023-10-20T12:05:14.953Z,0.80
2023-10-20T12:07:43.981Z,0.60
2023-10-20T12:10:13.854Z,0.77
2023-10-20T12:12:41.958Z,0.60
2023-10-20T12:15:10.753Z,0.57
2023-10-20T12:17:42.430Z,0.73
2023-10-20T12:20:11.757Z,0.70
2023-10-20T12:22:39.693Z,0.60
2023-10-20T12:25:08.644Z,0.90
2023-10-20T12:27:36.643Z,0.77
2023-10-20T12:30:05.183Z,0.60
2023-10-20T12:32:33.349Z,0.80
2023-10-20T12:35:02.851Z,0.67
2023-10-20T12:37:30.920Z,0.70
2023-10-20T12:40:00.496Z,0.57
2023-10-20T12:42:29.113Z,0.80
2023-10-20T12:44:57.372Z,0.60
2023-10-20T12:47:25.607Z,0.50
2023-10-20T12:49:55.847Z,0.80
2023-10-20T12:52:25.443Z,0.50
2023-10-20T12:54:53.745Z,0.53
2023-10-20T12:57:22.025Z,0.50
2023-10-20T12:59:50.158Z,0.50
2023-10-20T13:02:18.242Z,0.70
2023-10-20T13:04:46.420Z,0.67
2023-10-20T13:07:15.197Z,0.90
2023-10-20T13:09:44.664Z,0.70
2023-10-20T13:12:12.658Z,0.50
2023-10-20T13:14:40.938Z,0.50
2023-10-20T13:17:09.363Z,0.50
2023-10-20T13:19:38.881Z,0.90
2023-10-20T13:22:06.896Z,0.57
2023-10-20T13:24:35.151Z,0.60
2023-10-20T13:27:04.912Z,0.80
2023-10-20T13:29:33.142Z,0.70
2023-10-20T13:32:01.520Z,0.70
2023-10-20T13:34:29.611Z,0.90
2023-10-20T13:36:57.773Z,0.63
2023-10-20T13:41:57.848Z,0.80
2023-10-20T13:44:27.335Z,0.77
2023-10-20T13:46:55.388Z,1.00
2023-10-20T13:49:23.434Z,0.60
2023-10-20T13:51:51.393Z,0.60
2023-10-20T13:54:19.380Z,0.67
2023-10-20T13:56:47.883Z,0.57
2023-10-20T13:59:17.223Z,0.60
2023-10-20T14:01:46.578Z,0.67
2023-10-20T14:04:14.764Z,0.90
2023-10-20T14:06:42.857Z,0.53
2023-10-20T14:09:10.953Z,0.60
2023-10-20T14:11:38.919Z,0.50
2023-10-20T14:14:07.070Z,0.60
2023-10-20T14:16:35.990Z,0.67
2023-10-20T14:19:05.830Z,0.60
2023-10-20T14:21:33.821Z,0.70
2023-10-20T14:24:02.044Z,0.80
2023-10-20T14:26:30.151Z,0.60
2023-10-20T14:28:58.277Z,0.80
2023-10-20T14:31:29.506Z,0.60
2023-10-20T14:33:59.926Z,0.57
2023-10-20T14:36:29.290Z,0.50
2023-10-20T14:38:58.005Z,0.60
2023-10-20T14:41:26.221Z,0.50
2023-10-20T14:43:54.250Z,0.70
2023-10-20T14:46:22.329Z,0.80
2023-10-20T14:48:50.614Z,0.80
2023-10-20T14:51:18.607Z,0.53
2023-10-20T14:53:48.320Z,0.60
2023-10-20T14:56:17.948Z,0.60
2023-10-20T14:58:46.461Z,0.60
2023-10-20T15:01:14.521Z,0.50
2023-10-20T15:03:42.669Z,0.70
2023-10-20T15:06:10.841Z,0.80
2023-10-20T15:08:38.928Z,0.50
2023-10-20T15:11:09.131Z,0.50
2023-10-20T15:13:37.514Z,0.60
2023-10-20T15:16:06.987Z,0.50
2023-10-20T15:18:35.182Z,0.70
2023-10-20T15:21:06.381Z,1.63
2023-10-20T15:23:34.460Z,0.80
2023-10-20T15:26:06.332Z,0.60
2023-10-20T15:28:36.588Z,0.70
2023-10-20T15:31:11.287Z,0.67
2023-10-20T15:33:39.841Z,1.00
2023-10-20T15:36:08.919Z,1.37
2023-10-20T15:38:38.705Z,1.20
2023-10-20T15:41:06.925Z,1.10
2023-10-20T15:43:36.341Z,1.53
2023-10-20T15:46:08.786Z,1.27
2023-10-20T15:48:36.966Z,1.03
2023-10-20T15:51:06.461Z,1.10
2023-10-20T15:53:34.776Z,1.20
2023-10-20T15:56:02.914Z,1.20
2023-10-20T15:58:31.882Z,1.23
2023-10-20T16:01:01.968Z,1.00
2023-10-20T16:03:30.616Z,1.20
2023-10-20T16:06:02.453Z,1.47
2023-10-20T16:08:30.721Z,1.30
2023-10-20T16:10:58.764Z,1.07
2023-10-20T16:13:26.700Z,1.07
2023-10-20T16:15:54.714Z,1.40
2023-10-20T16:18:25.127Z,1.50
2023-10-20T16:20:53.943Z,1.77
2023-10-20T16:23:22.755Z,1.60
2023-10-20T16:25:50.805Z,1.50
2023-10-20T16:28:18.902Z,1.30
2023-10-20T16:30:46.813Z,1.17
2023-10-20T16:33:16.345Z,1.03
2023-10-20T16:35:48.649Z,1.10
2023-10-20T16:38:16.719Z,1.17
2023-10-20T16:40:45.141Z,0.80
2023-10-20T16:43:14.456Z,0.90
2023-10-20T16:45:42.739Z,1.13
2023-10-20T16:48:11.045Z,1.03
2023-10-20T16:50:39.220Z,1.20
2023-10-20T16:53:08.683Z,1.20
2023-10-20T16:55:38.344Z,1.17
2023-10-20T16:58:07.036Z,1.33
2023-10-20T17:00:37.108Z,1.63
2023-10-20T17:03:06.971Z,1.70
2023-10-20T17:05:38.335Z,1.60
2023-10-20T17:08:07.947Z,1.33
2023-10-20T17:10:39.422Z,1.07
2023-10-20T17:13:07.791Z,1.63
2023-10-20T17:15:35.808Z,1.23
2023-10-20T17:18:07.352Z,0.90
2023-10-20T17:20:40.828Z,1.10
2023-10-20T17:23:10.629Z,1.40
2023-10-20T17:25:39.290Z,1.17
2023-10-20T17:28:07.435Z,3.40
2023-10-20T17:30:37.902Z,1.47
2023-10-20T17:33:06.323Z,1.20
2023-10-20T17:35:34.597Z,1.17
2023-10-20T17:38:02.920Z,0.90
2023-10-20T17:40:35.596Z,1.00
2023-10-20T17:43:03.665Z,1.03
2023-10-20T17:45:31.974Z,1.30
2023-10-20T17:48:00.107Z,0.87
2023-10-20T17:50:28.119Z,1.10
2023-10-20T17:52:56.256Z,1.13
2023-10-20T17:55:24.166Z,0.80
2023-10-20T17:57:53.480Z,0.60
2023-10-20T18:00:22.890Z,0.97
2023-10-20T18:02:51.827Z,1.17
2023-10-20T18:05:20.308Z,1.53
2023-10-20T18:07:48.681Z,1.10
2023-10-20T18:10:16.797Z,1.60
2023-10-20T18:12:45.098Z,2.63
2023-10-20T18:15:15.248Z,2.80
2023-10-20T18:17:43.478Z,3.33
2023-10-20T18:20:11.841Z,1.70
2023-10-20T18:22:41.088Z,1.10
2023-10-20T18:25:09.986Z,1.10
2023-10-20T18:27:38.140Z,1.10
2023-10-20T18:30:07.894Z,1.17
2023-10-20T18:32:37.343Z,1.10
2023-10-20T18:35:06.645Z,1.23
2023-10-20T18:37:34.964Z,1.00
2023-10-20T18:40:02.945Z,0.70
2023-10-20T18:42:32.427Z,0.83
2023-10-20T18:45:00.553Z,0.60
2023-10-20T18:47:29.124Z,0.67
2023-10-20T18:49:58.471Z,0.87
2023-10-20T18:52:26.843Z,0.83
2023-10-20T18:54:54.949Z,0.93
2023-10-20T18:57:22.956Z,1.03
2023-10-20T18:59:50.986Z,1.20
2023-10-20T19:02:18.993Z,1.13
2023-10-20T19:04:46.928Z,0.80
2023-10-20T19:07:16.199Z,0.50
2023-10-20T19:09:44.300Z,0.77
2023-10-20T19:12:12.805Z,0.80
2023-10-20T19:14:40.803Z,0.77
2023-10-20T19:17:08.866Z,0.67
2023-10-20T19:19:36.862Z,0.70
2023-10-20T19:22:04.840Z,0.73
2023-10-20T19:24:34.136Z,0.90
2023-10-20T19:27:02.143Z,1.00
2023-10-20T19:29:30.173Z,0.87
2023-10-20T19:31:59.781Z,0.83
2023-10-20T19:34:27.994Z,0.73
2023-10-20T19:36:56.052Z,0.90
2023-10-20T19:39:24.396Z,0.67
2023-10-20T19:41:55.115Z,0.70
2023-10-20T19:44:23.325Z,1.20
2023-10-20T19:46:51.323Z,0.87
2023-10-20T19:49:19.267Z,0.63
2023-10-20T19:51:47.180Z,0.97
2023-10-20T19:54:16.823Z,0.77
2023-10-20T19:56:45.330Z,0.63
2023-10-20T19:59:14.716Z,0.80
2023-10-20T20:01:42.836Z,0.80
2023-10-20T20:04:11.143Z,0.60
2023-10-20T20:06:39.602Z,0.80
2023-10-20T20:09:07.708Z,0.63
2023-10-20T20:11:35.827Z,0.70
2023-10-20T20:14:04.477Z,0.60
2023-10-20T20:16:33.832Z,1.10
2023-10-20T20:19:02.292Z,0.60
2023-10-20T20:21:30.593Z,0.60
2023-10-20T20:23:58.606Z,0.70
2023-10-20T20:26:26.688Z,0.73
2023-10-20T20:28:54.709Z,0.63
2023-10-20T20:31:22.772Z,1.07
2023-10-20T20:33:52.132Z,0.70
2023-10-20T20:36:20.157Z,0.73
2023-10-20T20:38:49.007Z,0.73
2023-10-20T20:41:16.972Z,0.70
2023-10-20T20:43:45.021Z,0.50
2023-10-20T20:46:13.142Z,0.60
2023-10-20T20:48:41.250Z,0.60
2023-10-20T20:51:12.578Z,0.43
2023-10-20T20:53:40.724Z,0.50
2023-10-20T20:56:10.652Z,0.50
2023-10-20T20:58:38.557Z,0.53
2023-10-20T21:01:09.640Z,0.53
2023-10-20T21:03:44.038Z,0.70
2023-10-20T21:06:13.968Z,0.87
2023-10-20T21:08:42.084Z,1.00
2023-10-20T21:11:11.780Z,0.83
2023-10-20T21:13:42.185Z,1.00
2023-10-20T21:16:12.498Z,0.60
2023-10-20T21:18:41.067Z,0.70
2023-10-20T21:21:13.693Z,0.53
2023-10-20T21:23:44.575Z,0.60
2023-10-20T21:26:12.566Z,0.60
2023-10-20T21:28:40.553Z,0.60
2023-10-20T21:31:08.993Z,0.60
2023-10-20T21:33:37.152Z,0.93
2023-10-20T21:36:05.515Z,0.70
2023-10-20T21:38:33.768Z,0.60
2023-10-20T21:41:03.044Z,0.70
2023-10-20T21:43:31.269Z,0.60
2023-10-20T21:46:00.262Z,0.70
2023-10-20T21:48:28.872Z,0.70
2023-10-20T21:50:58.156Z,0.90
2023-10-20T21:53:26.471Z,0.70
2023-10-20T21:56:02.890Z,0.77
2023-10-20T21:58:32.151Z,1.00
2023-10-20T22:01:00.760Z,0.70
2023-10-20T22:03:29.146Z,0.60
2023-10-20T22:05:57.316Z,0.50
2023-10-20T22:08:25.945Z,0.67
2023-10-20T22:10:54.166Z,0.70
2023-10-20T22:13:23.769Z,0.50
2023-10-20T22:15:51.823Z,0.50
2023-10-20T22:18:20.108Z,0.80
2023-10-20T22:20:48.453Z,0.57
2023-10-20T22:23:19.154Z,0.60
2023-10-20T22:25:47.251Z,0.60
2023-10-20T22:28:15.775Z,0.67
2023-10-20T22:30:45.204Z,0.63
2023-10-20T22:33:13.296Z,0.50
2023-10-20T22:35:41.377Z,0.50
2023-10-20T22:38:10.471Z,0.50
2023-10-20T22:40:38.426Z,0.50
2023-10-20T22:43:06.406Z,0.60
2023-10-20T22:45:34.295Z,0.63
2023-10-20T22:48:03.790Z,0.50
2023-10-20T22:50:31.731Z,0.67
2023-10-20T22:52:59.672Z,0.50
2023-10-20T22:55:27.626Z,0.50
2023-10-20T22:57:55.538Z,0.67
2023-10-20T23:00:23.524Z,0.70
2023-10-20T23:02:52.109Z,0.60
2023-10-20T23:05:23.133Z,0.50
2023-10-20T23:07:51.223Z,0.50
2023-10-20T23:10:19.448Z,0.47
2023-10-20T23:12:47.386Z,0.73
2023-10-20T23:15:15.772Z,0.80
2023-10-20T23:17:43.876Z,1.17
2023-10-20T23:20:12.892Z,0.57
2023-10-20T23:22:42.301Z,0.60
2023-10-20T23:25:10.556Z,0.70
2023-10-20T23:27:38.521Z,0.50
2023-10-20T23:30:07.604Z,0.40
2023-10-20T23:32:35.590Z,0.80
2023-10-20T23:35:03.775Z,0.80
2023-10-20T23:37:31.789Z,0.53
2023-10-20T23:40:01.347Z,0.50
2023-10-20T23:42:29.342Z,0.60
2023-10-20T23:44:57.280Z,0.70
2023-10-20T23:47:25.378Z,0.40
2023-10-20T23:49:53.307Z,1.27
2023-10-20T23:52:21.412Z,0.50
2023-10-20T23:54:53.191Z,0.60
2023-10-20T23:57:23.125Z,0.50
2023-10-20T23:59:51.071Z,0.60
